sensor_id;sensor_type;location;lat;lon;timestamp;pressure;altitude;pressure_sealevel;temperature;humidity
42859;BME280;28505;56.970;40.998;2023-03-03T00:03:42;98256.38;;;-2.10;100.00
42859;BME280;28505;56.970;40.998;2023-03-03T00:09:04;98242.94;;;-2.08;100.00
42859;BME280;28505;56.970;40.998;2023-03-03T00:14:31;98231.31;;;-2.13;100.00
42859;BME280;28505;56.970;40.998;2023-03-03T00:19:54;98232.59;;;-2.15;100.00
42859;BME280;28505;56.970;40.998;2023-03-03T00:25:30;98254.94;;;-1.96;100.00
42859;BME280;28505;56.970;40.998;2023-03-03T00:30:57;98257.06;;;-1.93;100.00
42859;BME280;28505;56.970;40.998;2023-03-03T00:36:36;98236.41;;;-2.01;100.00
42859;BME280;28505;56.970;40.998;2023-03-03T00:41:59;98232.69;;;-2.05;100.00
42859;BME280;28505;56.970;40.998;2023-03-03T00:47:25;98238.81;;;-1.94;100.00
42859;BME280;28505;56.970;40.998;2023-03-03T00:58:22;98237.22;;;-1.95;100.00
42859;BME280;28505;56.970;40.998;2023-03-03T01:03:44;98233.31;;;-1.88;100.00
42859;BME280;28505;56.970;40.998;2023-03-03T01:09:07;98233.81;;;-1.96;100.00
42859;BME280;28505;56.970;40.998;2023-03-03T01:14:29;98223.47;;;-1.97;100.00
42859;BME280;28505;56.970;40.998;2023-03-03T01:19:52;98216.84;;;-2.05;100.00
42859;BME280;28505;56.970;40.998;2023-03-03T01:25:14;98230.88;;;-1.99;100.00
42859;BME280;28505;56.970;40.998;2023-03-03T01:30:37;98238.81;;;-1.94;100.00
42859;BME280;28505;56.970;40.998;2023-03-03T01:36:03;98240.66;;;-1.95;100.00
42859;BME280;28505;56.970;40.998;2023-03-03T01:41:27;98247.53;;;-1.94;100.00
42859;BME280;28505;56.970;40.998;2023-03-03T01:47:04;98242.22;;;-1.99;100.00
42859;BME280;28505;56.970;40.998;2023-03-03T01:52:43;98227.69;;;-2.01;100.00
42859;BME280;28505;56.970;40.998;2023-03-03T01:58:22;98227.91;;;-2.03;100.00
42859;BME280;28505;56.970;40.998;2023-03-03T02:03:54;98238.03;;;-1.95;100.00
42859;BME280;28505;56.970;40.998;2023-03-03T02:14:49;98222.63;;;-2.03;100.00
42859;BME280;28505;56.970;40.998;2023-03-03T02:31:26;98175.75;;;-2.28;100.00
42859;BME280;28505;56.970;40.998;2023-03-03T02:36:48;98216.84;;;-2.00;100.00
42859;BME280;28505;56.970;40.998;2023-03-03T02:42:24;98223.75;;;-1.94;100.00
42859;BME280;28505;56.970;40.998;2023-03-03T02:47:50;98215.03;;;-1.99;100.00
42859;BME280;28505;56.970;40.998;2023-03-03T02:53:13;98200.72;;;-2.03;100.00
42859;BME280;28505;56.970;40.998;2023-03-03T02:58:36;98208.72;;;-1.93;100.00
42859;BME280;28505;56.970;40.998;2023-03-03T03:03:58;98197.34;;;-1.99;100.00
42859;BME280;28505;56.970;40.998;2023-03-03T03:09:22;98190.44;;;-2.00;100.00
42859;BME280;28505;56.970;40.998;2023-03-03T03:14:50;98195.78;;;-1.95;100.00
42859;BME280;28505;56.970;40.998;2023-03-03T03:20:17;98179.38;;;-2.02;100.00
42859;BME280;28505;56.970;40.998;2023-03-03T03:25:40;98175.66;;;-2.06;100.00
42859;BME280;28505;56.970;40.998;2023-03-03T03:31:18;98181.72;;;-2.05;100.00
42859;BME280;28505;56.970;40.998;2023-03-03T03:36:41;98184.59;;;-2.07;100.00
42859;BME280;28505;56.970;40.998;2023-03-03T03:42:05;98165.56;;;-2.14;100.00
42859;BME280;28505;56.970;40.998;2023-03-03T03:47:27;98163.91;;;-2.20;100.00
42859;BME280;28505;56.970;40.998;2023-03-03T03:52:51;98188.25;;;-2.13;100.00
42859;BME280;28505;56.970;40.998;2023-03-03T03:58:15;98171.84;;;-2.20;100.00
42859;BME280;28505;56.970;40.998;2023-03-03T04:03:44;98183.97;;;-2.19;100.00
42859;BME280;28505;56.970;40.998;2023-03-03T04:09:10;98186.09;;;-2.21;100.00
42859;BME280;28505;56.970;40.998;2023-03-03T04:14:32;98188.97;;;-2.23;100.00
42859;BME280;28505;56.970;40.998;2023-03-03T04:19:56;98159.09;;;-2.33;100.00
42859;BME280;28505;56.970;40.998;2023-03-03T04:25:20;98169.75;;;-2.18;100.00
42859;BME280;28505;56.970;40.998;2023-03-03T04:30:44;98179.81;;;-2.10;100.00
42859;BME280;28505;56.970;40.998;2023-03-03T04:36:09;98180.94;;;-2.01;100.00
42859;BME280;28505;56.970;40.998;2023-03-03T04:41:32;98182.53;;;-2.00;100.00
42859;BME280;28505;56.970;40.998;2023-03-03T04:46:54;98189.41;;;-1.99;100.00
42859;BME280;28505;56.970;40.998;2023-03-03T04:52:16;98182.53;;;-2.00;100.00
42859;BME280;28505;56.970;40.998;2023-03-03T04:57:39;98201.13;;;-1.84;100.00
42859;BME280;28505;56.970;40.998;2023-03-03T05:03:01;98186.84;;;-1.83;100.00
42859;BME280;28505;56.970;40.998;2023-03-03T05:08:24;98210.47;;;-1.61;100.00
42859;BME280;28505;56.970;40.998;2023-03-03T05:13:46;98192.25;;;-1.63;100.00
42859;BME280;28505;56.970;40.998;2023-03-03T05:19:08;98208.72;;;-1.46;100.00
42859;BME280;28505;56.970;40.998;2023-03-03T05:24:31;98207.41;;;-1.38;100.00
42859;BME280;28505;56.970;40.998;2023-03-03T05:29:53;98195.53;;;-1.40;100.00
42859;BME280;28505;56.970;40.998;2023-03-03T05:35:16;98196.09;;;-1.33;100.00
42859;BME280;28505;56.970;40.998;2023-03-03T05:40:38;98198.75;;;-1.18;100.00
42859;BME280;28505;56.970;40.998;2023-03-03T05:46:00;98198.25;;;-1.15;100.00
42859;BME280;28505;56.970;40.998;2023-03-03T05:51:23;98212.06;;;-0.98;100.00
42859;BME280;28505;56.970;40.998;2023-03-03T05:56:45;98196.47;;;-0.89;100.00
42859;BME280;28505;56.970;40.998;2023-03-03T06:02:07;98202.06;;;-0.60;100.00
42859;BME280;28505;56.970;40.998;2023-03-03T06:07:30;98215.34;;;-0.19;100.00
42859;BME280;28505;56.970;40.998;2023-03-03T06:12:53;98199.44;;;-0.44;100.00
42859;BME280;28505;56.970;40.998;2023-03-03T06:18:16;98198.91;;;-0.41;100.00
42859;BME280;28505;56.970;40.998;2023-03-03T06:23:40;98213.47;;;-0.24;100.00
42859;BME280;28505;56.970;40.998;2023-03-03T06:29:02;98206.84;;;-0.21;100.00
42859;BME280;28505;56.970;40.998;2023-03-03T06:34:24;98203.94;;;-0.30;100.00
42859;BME280;28505;56.970;40.998;2023-03-03T06:39:47;98221.44;;;-0.39;100.00
42859;BME280;28505;56.970;40.998;2023-03-03T06:45:09;98214.28;;;-0.49;100.00
42859;BME280;28505;56.970;40.998;2023-03-03T06:50:31;98180.38;;;-0.67;100.00
42859;BME280;28505;56.970;40.998;2023-03-03T06:55:55;98206.59;;;-0.14;100.00
42859;BME280;28505;56.970;40.998;2023-03-03T07:01:18;98193.09;;;-0.13;100.00
42859;BME280;28505;56.970;40.998;2023-03-03T07:06:41;98167.41;;;-0.28;100.00
42859;BME280;28505;56.970;40.998;2023-03-03T07:12:11;98189.38;;;-0.12;100.00
42859;BME280;28505;56.970;40.998;2023-03-03T07:17:38;98174.00;;;-0.05;100.00
42859;BME280;28505;56.970;40.998;2023-03-03T07:23:23;98200.44;;;0.21;100.00
42859;BME280;28505;56.970;40.998;2023-03-03T07:28:55;98171.34;;;0.11;100.00
42859;BME280;28505;56.970;40.998;2023-03-03T07:34:24;98186.63;;;0.34;100.00
42859;BME280;28505;56.970;40.998;2023-03-03T07:39:49;98168.88;;;0.35;100.00
42859;BME280;28505;56.970;40.998;2023-03-03T07:45:25;98185.44;;;0.71;100.00
42859;BME280;28505;56.970;40.998;2023-03-03T07:50:47;98163.41;;;0.76;100.00
42859;BME280;28505;56.970;40.998;2023-03-03T07:56:27;98165.16;;;0.96;100.00
42859;BME280;28505;56.970;40.998;2023-03-03T08:01:52;98155.91;;;0.88;100.00
42859;BME280;28505;56.970;40.998;2023-03-03T08:07:19;98142.16;;;0.81;100.00
42859;BME280;28505;56.970;40.998;2023-03-03T08:12:42;98158.53;;;0.98;100.00
42859;BME280;28505;56.970;40.998;2023-03-03T08:18:39;98161.34;;;1.12;100.00
42859;BME280;28505;56.970;40.998;2023-03-03T08:24:02;98155.50;;;1.15;100.00
42859;BME280;28505;56.970;40.998;2023-03-03T08:29:25;98174.16;;;1.44;100.00
42859;BME280;28505;56.970;40.998;2023-03-03T08:34:47;98150.28;;;1.39;100.00
42859;BME280;28505;56.970;40.998;2023-03-03T08:40:10;98147.47;;;1.59;100.00
42859;BME280;28505;56.970;40.998;2023-03-03T08:45:33;98134.31;;;1.73;100.00
42859;BME280;28505;56.970;40.998;2023-03-03T08:50:56;98166.34;;;1.87;100.00
42859;BME280;28505;56.970;40.998;2023-03-03T08:56:19;98142.34;;;1.68;100.00
42859;BME280;28505;56.970;40.998;2023-03-03T09:01:42;98141.16;;;1.79;100.00
42859;BME280;28505;56.970;40.998;2023-03-03T09:07:05;98144.31;;;1.86;100.00
42859;BME280;28505;56.970;40.998;2023-03-03T09:12:32;98157.44;;;2.02;100.00
42859;BME280;28505;56.970;40.998;2023-03-03T09:17:59;98158.63;;;1.91;100.00
42859;BME280;28505;56.970;40.998;2023-03-03T09:28:48;98130.53;;;1.50;100.00
42859;BME280;28505;56.970;40.998;2023-03-03T09:34:20;98148.53;;;1.58;100.00
42859;BME280;28505;56.970;40.998;2023-03-03T09:39:46;98132.41;;;1.50;100.00
42859;BME280;28505;56.970;40.998;2023-03-03T09:50:57;98133.56;;;1.38;100.00
42859;BME280;28505;56.970;40.998;2023-03-03T09:56:36;98145.41;;;1.51;100.00
42859;BME280;28505;56.970;40.998;2023-03-03T10:08:31;98149.13;;;1.16;100.00
42859;BME280;28505;56.970;40.998;2023-03-03T10:20:06;98157.56;;;1.23;100.00
42859;BME280;28505;56.970;40.998;2023-03-03T10:25:41;98168.72;;;1.20;100.00
42859;BME280;28505;56.970;40.998;2023-03-03T10:43:20;98154.28;;;1.71;100.00
42859;BME280;28505;56.970;40.998;2023-03-03T10:49:11;98150.91;;;1.60;100.00
42859;BME280;28505;56.970;40.998;2023-03-03T11:00:46;98152.84;;;1.49;100.00
42859;BME280;28505;56.970;40.998;2023-03-03T11:06:23;98155.25;;;1.51;100.00
42859;BME280;28505;56.970;40.998;2023-03-03T11:12:11;98159.94;;;1.59;100.00
42859;BME280;28505;56.970;40.998;2023-03-03T11:18:20;98116.69;;;1.53;100.00
42859;BME280;28505;56.970;40.998;2023-03-03T11:29:39;98143.34;;;2.01;100.00
42859;BME280;28505;56.970;40.998;2023-03-03T11:40:50;98108.28;;;1.99;100.00
42859;BME280;28505;56.970;40.998;2023-03-03T11:46:21;98138.94;;;2.16;100.00
42859;BME280;28505;56.970;40.998;2023-03-03T11:57:49;98155.63;;;2.21;100.00
42859;BME280;28505;56.970;40.998;2023-03-03T12:15:05;98158.94;;;1.84;100.00
42859;BME280;28505;56.970;40.998;2023-03-03T12:32:27;98163.38;;;1.94;100.00
42859;BME280;28505;56.970;40.998;2023-03-03T12:37:47;98165.25;;;1.59;100.00
42859;BME280;28505;56.970;40.998;2023-03-03T12:43:46;98156.16;;;1.36;100.00
42859;BME280;28505;56.970;40.998;2023-03-03T12:49:11;98167.38;;;1.23;100.00
42859;BME280;28505;56.970;40.998;2023-03-03T13:00:13;98176.53;;;1.01;100.00
42859;BME280;28505;56.970;40.998;2023-03-03T13:05:56;98177.75;;;1.19;100.00
42859;BME280;28505;56.970;40.998;2023-03-03T13:23:35;98170.69;;;0.44;100.00
42859;BME280;28505;56.970;40.998;2023-03-03T13:29:04;98189.00;;;0.41;100.00
42859;BME280;28505;56.970;40.998;2023-03-03T13:40:58;98178.00;;;0.73;100.00
42859;BME280;28505;56.970;40.998;2023-03-03T13:46:46;98180.38;;;0.80;100.00
42859;BME280;28505;56.970;40.998;2023-03-03T13:52:25;98170.31;;;0.77;100.00
42859;BME280;28505;56.970;40.998;2023-03-03T14:09:11;98192.66;;;0.55;100.00
42859;BME280;28505;56.970;40.998;2023-03-03T14:14:56;98191.41;;;0.32;100.00
42859;BME280;28505;56.970;40.998;2023-03-03T14:20:24;98162.88;;;-0.02;100.00
42859;BME280;28505;56.970;40.998;2023-03-03T14:31:37;98176.94;;;-0.21;100.00
42859;BME280;28505;56.970;40.998;2023-03-03T14:37:41;98176.16;;;-0.42;100.00
42859;BME280;28505;56.970;40.998;2023-03-03T14:43:03;98198.66;;;-0.55;100.00
42859;BME280;28505;56.970;40.998;2023-03-03T14:48:26;98200.72;;;-0.83;100.00
42859;BME280;28505;56.970;40.998;2023-03-03T14:53:53;98232.47;;;-0.73;100.00
42859;BME280;28505;56.970;40.998;2023-03-03T14:59:22;98210.50;;;-0.83;100.00
42859;BME280;28505;56.970;40.998;2023-03-03T15:04:46;98221.63;;;-0.86;100.00
42859;BME280;28505;56.970;40.998;2023-03-03T15:10:10;98243.81;;;-0.92;100.00
42859;BME280;28505;56.970;40.998;2023-03-03T15:15:33;98207.69;;;-1.34;100.00
42859;BME280;28505;56.970;40.998;2023-03-03T15:21:10;98256.94;;;-1.23;100.00
42859;BME280;28505;56.970;40.998;2023-03-03T15:32:23;98252.00;;;-1.57;100.00
42859;BME280;28505;56.970;40.998;2023-03-03T15:43:33;98265.69;;;-1.65;100.00
42859;BME280;28505;56.970;40.998;2023-03-03T16:06:00;98245.22;;;-2.22;100.00
42859;BME280;28505;56.970;40.998;2023-03-03T16:11:36;98266.94;;;-2.15;100.00
42859;BME280;28505;56.970;40.998;2023-03-03T16:17:21;98265.78;;;-2.24;100.00
42859;BME280;28505;56.970;40.998;2023-03-03T16:45:35;98252.69;;;-2.68;100.00
42859;BME280;28505;56.970;40.998;2023-03-03T16:51:20;98253.16;;;-2.76;100.00
42859;BME280;28505;56.970;40.998;2023-03-03T17:08:45;98298.16;;;-2.61;100.00
42859;BME280;28505;56.970;40.998;2023-03-03T17:14:33;98300.50;;;-2.65;100.00
42859;BME280;28505;56.970;40.998;2023-03-03T17:42:42;98299.19;;;-2.62;100.00
42859;BME280;28505;56.970;40.998;2023-03-03T18:00:26;98288.00;;;-2.74;100.00
42859;BME280;28505;56.970;40.998;2023-03-03T18:11:52;98310.38;;;-2.55;100.00
42859;BME280;28505;56.970;40.998;2023-03-03T18:23:37;98285.91;;;-2.72;100.00
42859;BME280;28505;56.970;40.998;2023-03-03T18:29:25;98315.88;;;-2.56;100.00
42859;BME280;28505;56.970;40.998;2023-03-03T18:35:20;98289.63;;;-2.68;100.00
42859;BME280;28505;56.970;40.998;2023-03-03T18:41:17;98310.31;;;-2.60;100.00
42859;BME280;28505;56.970;40.998;2023-03-03T18:52:20;98319.75;;;-2.64;100.00
42859;BME280;28505;56.970;40.998;2023-03-03T18:58:45;98312.44;;;-2.84;100.00
42859;BME280;28505;56.970;40.998;2023-03-03T19:09:10;98312.97;;;-3.04;100.00
42859;BME280;28505;56.970;40.998;2023-03-03T19:14:37;98302.84;;;-3.12;100.00
42859;BME280;28505;56.970;40.998;2023-03-03T19:20:10;98327.31;;;-2.95;100.00
42859;BME280;28505;56.970;40.998;2023-03-03T19:25:37;98316.09;;;-3.07;100.00
42859;BME280;28505;56.970;40.998;2023-03-03T19:31:20;98322.97;;;-3.06;100.00
42859;BME280;28505;56.970;40.998;2023-03-03T19:42:44;98319.16;;;-2.93;100.00
42859;BME280;28505;56.970;40.998;2023-03-03T19:48:35;98321.06;;;-2.89;100.00
42859;BME280;28505;56.970;40.998;2023-03-03T19:59:59;98324.97;;;-2.91;100.00
42859;BME280;28505;56.970;40.998;2023-03-03T20:39:41;98296.28;;;-2.88;100.00
42859;BME280;28505;56.970;40.998;2023-03-03T20:51:09;98303.94;;;-3.30;100.00
42859;BME280;28505;56.970;40.998;2023-03-03T20:56:40;98280.59;;;-3.60;100.00
42859;BME280;28505;56.970;40.998;2023-03-03T21:07:33;98273.97;;;-3.46;100.00
42859;BME280;28505;56.970;40.998;2023-03-03T21:13:31;98289.59;;;-3.17;100.00
42859;BME280;28505;56.970;40.998;2023-03-03T21:19:09;98295.00;;;-3.07;100.00
42859;BME280;28505;56.970;40.998;2023-03-03T21:24:54;98295.44;;;-2.93;100.00
42859;BME280;28505;56.970;40.998;2023-03-03T21:30:21;98267.34;;;-3.04;100.00
42859;BME280;28505;56.970;40.998;2023-03-03T21:35:58;98292.66;;;-2.82;100.00
42859;BME280;28505;56.970;40.998;2023-03-03T21:41:24;98289.78;;;-2.80;100.00
42859;BME280;28505;56.970;40.998;2023-03-03T21:46:49;98278.13;;;-2.84;100.00
42859;BME280;28505;56.970;40.998;2023-03-03T21:52:16;98254.59;;;-2.91;100.00
42859;BME280;28505;56.970;40.998;2023-03-03T21:57:43;98280.31;;;-2.76;100.00
42859;BME280;28505;56.970;40.998;2023-03-03T22:03:06;98285.91;;;-2.72;100.00
42859;BME280;28505;56.970;40.998;2023-03-03T22:08:29;98266.78;;;-2.85;100.00
42859;BME280;28505;56.970;40.998;2023-03-03T22:13:55;98252.78;;;-2.85;100.00
42859;BME280;28505;56.970;40.998;2023-03-03T22:19:22;98287.31;;;-2.65;100.00
42859;BME280;28505;56.970;40.998;2023-03-03T22:24:47;98259.41;;;-2.83;100.00
42859;BME280;28505;56.970;40.998;2023-03-03T22:30:13;98264.31;;;-2.69;100.00
42859;BME280;28505;56.970;40.998;2023-03-03T22:35:35;98258.50;;;-2.71;100.00
42859;BME280;28505;56.970;40.998;2023-03-03T22:40:58;98284.81;;;-2.49;100.00
42859;BME280;28505;56.970;40.998;2023-03-03T22:46:21;98272.88;;;-2.57;100.00
42859;BME280;28505;56.970;40.998;2023-03-03T22:51:43;98282.63;;;-2.57;100.00
42859;BME280;28505;56.970;40.998;2023-03-03T22:57:08;98257.44;;;-2.70;100.00
42859;BME280;28505;56.970;40.998;2023-03-03T23:02:30;98251.56;;;-2.77;100.00
42859;BME280;28505;56.970;40.998;2023-03-03T23:07:52;98256.94;;;-2.67;100.00
42859;BME280;28505;56.970;40.998;2023-03-03T23:13:16;98240.56;;;-2.69;100.00
42859;BME280;28505;56.970;40.998;2023-03-03T23:18:38;98231.66;;;-2.63;100.00
42859;BME280;28505;56.970;40.998;2023-03-03T23:24:01;98239.66;;;-2.53;100.00
42859;BME280;28505;56.970;40.998;2023-03-03T23:29:23;98239.94;;;-2.54;100.00
42859;BME280;28505;56.970;40.998;2023-03-03T23:34:49;98232.22;;;-2.61;100.00
42859;BME280;28505;56.970;40.998;2023-03-03T23:40:13;98214.69;;;-2.72;100.00
42859;BME280;28505;56.970;40.998;2023-03-03T23:45:39;98231.31;;;-2.72;100.00
42859;BME280;28505;56.970;40.998;2023-03-03T23:51:02;98211.91;;;-2.88;100.00
42859;BME280;28505;56.970;40.998;2023-03-03T23:56:24;98222.50;;;-2.83;100.00
